createdAt,value
2022-11-09T00:00:50.900Z,7.50
2022-11-09T00:03:17.952Z,7.50
2022-11-09T00:05:55.295Z,7.50
2022-11-09T00:08:22.021Z,7.60
2022-11-09T00:10:48.679Z,7.60
2022-11-09T00:13:15.482Z,7.50
2022-11-09T00:15:42.436Z,7.60
2022-11-09T00:18:09.095Z,7.60
2022-11-09T00:20:35.964Z,7.70
2022-11-09T00:23:02.636Z,7.60
2022-11-09T00:25:29.322Z,7.60
2022-11-09T00:27:55.953Z,7.60
2022-11-09T00:30:22.615Z,7.60
2022-11-09T00:32:49.324Z,7.60
2022-11-09T00:35:16.115Z,7.60
2022-11-09T00:37:42.784Z,7.70
2022-11-09T00:40:10.425Z,7.70
2022-11-09T00:42:37.079Z,7.70
2022-11-09T00:45:04.414Z,7.70
2022-11-09T00:47:31.073Z,7.70
2022-11-09T00:49:57.735Z,7.70
2022-11-09T00:52:24.449Z,7.60
2022-11-09T00:54:51.168Z,7.60
2022-11-09T00:57:17.847Z,7.60
2022-11-09T00:59:44.487Z,7.50
2022-11-09T01:02:11.278Z,7.60
2022-11-09T01:04:38.070Z,7.50
2022-11-09T01:07:06.852Z,7.50
2022-11-09T01:09:33.915Z,7.50
2022-11-09T01:12:00.551Z,7.50
2022-11-09T01:14:27.184Z,7.50
2022-11-09T01:16:53.838Z,7.50
2022-11-09T01:19:20.490Z,7.50
2022-11-09T01:21:47.325Z,7.50
2022-11-09T01:24:14.273Z,7.50
2022-11-09T01:26:40.891Z,7.40
2022-11-09T01:29:07.553Z,7.40
2022-11-09T01:31:34.258Z,7.50
2022-11-09T01:34:00.903Z,7.50
2022-11-09T01:36:27.598Z,7.50
2022-11-09T01:38:54.344Z,7.50
2022-11-09T01:41:27.141Z,7.50
2022-11-09T01:44:05.791Z,7.50
2022-11-09T01:46:38.937Z,7.50
2022-11-09T01:49:13.298Z,7.50
2022-11-09T01:51:58.393Z,7.50
2022-11-09T01:54:29.477Z,7.50
2022-11-09T01:57:00.955Z,7.50
2022-11-09T01:59:31.681Z,7.50
2022-11-09T02:02:00.083Z,7.50
2022-11-09T02:04:32.290Z,7.50
2022-11-09T02:06:59.864Z,7.50
2022-11-09T02:10:03.862Z,7.50
2022-11-09T02:12:34.386Z,7.50
2022-11-09T02:15:04.609Z,7.40
2022-11-09T02:17:31.377Z,7.40
2022-11-09T02:19:58.872Z,7.30
2022-11-09T02:22:25.946Z,7.30
2022-11-09T02:24:56.299Z,7.30
2022-11-09T02:27:24.089Z,7.30
2022-11-09T02:29:51.284Z,7.30
2022-11-09T02:32:24.050Z,7.20
2022-11-09T02:34:50.701Z,7.20
2022-11-09T02:37:33.367Z,7.10
2022-11-09T02:40:02.500Z,7.10
2022-11-09T02:42:29.426Z,7.20
2022-11-09T02:44:59.289Z,7.30
2022-11-09T02:47:26.364Z,7.30
2022-11-09T02:49:53.146Z,7.20
2022-11-09T02:52:19.900Z,7.30
2022-11-09T02:54:46.581Z,7.30
2022-11-09T02:57:13.255Z,7.30
2022-11-09T02:59:39.881Z,7.30
2022-11-09T03:02:06.773Z,7.40
2022-11-09T03:04:33.523Z,7.30
2022-11-09T03:07:00.287Z,7.30
2022-11-09T03:09:27.094Z,7.40
2022-11-09T03:11:53.844Z,7.30
2022-11-09T03:14:20.547Z,7.30
2022-11-09T03:16:50.440Z,7.30
2022-11-09T03:19:17.363Z,7.30
2022-11-09T03:21:44.217Z,7.30
2022-11-09T03:24:10.963Z,7.30
2022-11-09T03:26:37.639Z,7.20
2022-11-09T03:29:04.399Z,7.10
2022-11-09T03:31:31.090Z,7.10
2022-11-09T03:33:57.753Z,7.10
2022-11-09T03:36:24.445Z,7.10
2022-11-09T03:38:51.083Z,7.10
2022-11-09T03:41:18.220Z,7.00
2022-11-09T03:43:44.874Z,7.10
2022-11-09T03:46:11.517Z,7.10
2022-11-09T03:48:38.195Z,7.00
2022-11-09T03:51:04.934Z,7.10
2022-11-09T03:53:31.589Z,7.10
2022-11-09T03:55:58.623Z,7.00
2022-11-09T03:58:25.293Z,7.00
2022-11-09T04:00:52.213Z,7.00
2022-11-09T04:03:19.341Z,7.00
2022-11-09T04:05:46.276Z,7.00
2022-11-09T04:08:13.042Z,7.00
2022-11-09T04:10:39.709Z,7.00
2022-11-09T04:13:06.357Z,6.90
2022-11-09T04:15:33.024Z,6.90
2022-11-09T04:18:01.249Z,6.90
2022-11-09T04:20:29.677Z,6.90
2022-11-09T04:22:58.792Z,6.90
2022-11-09T04:25:26.392Z,6.90
2022-11-09T04:27:57.123Z,6.90
2022-11-09T04:30:25.169Z,6.90
2022-11-09T04:32:51.865Z,6.90
2022-11-09T04:35:18.508Z,7.00
2022-11-09T04:37:57.125Z,6.90
2022-11-09T04:40:25.477Z,6.90
2022-11-09T04:42:52.560Z,6.90
2022-11-09T04:45:20.460Z,6.90
2022-11-09T04:47:47.428Z,7.00
2022-11-09T04:50:14.573Z,6.90
2022-11-09T04:52:41.324Z,6.80
2022-11-09T04:55:08.444Z,6.80
2022-11-09T04:57:35.103Z,6.80
2022-11-09T05:00:02.020Z,6.80
2022-11-09T05:02:28.706Z,6.80
2022-11-09T05:04:55.392Z,6.70
2022-11-09T05:07:22.085Z,6.70
2022-11-09T05:09:48.712Z,6.60
2022-11-09T05:12:15.469Z,6.60
2022-11-09T05:14:42.235Z,6.60
2022-11-09T05:17:09.047Z,6.60
2022-11-09T05:19:35.869Z,6.40
2022-11-09T05:22:22.509Z,6.40
2022-11-09T05:24:51.654Z,6.40
2022-11-09T05:27:18.444Z,6.20
2022-11-09T05:29:45.104Z,6.10
2022-11-09T05:32:11.782Z,6.20
2022-11-09T05:34:38.451Z,6.20
2022-11-09T05:37:05.121Z,6.10
2022-11-09T05:39:31.770Z,6.00
2022-11-09T05:41:58.441Z,6.10
2022-11-09T05:44:25.560Z,6.10
2022-11-09T05:46:53.497Z,6.10
2022-11-09T05:49:20.157Z,6.00
2022-11-09T05:51:46.825Z,6.00
2022-11-09T05:54:13.527Z,6.10
2022-11-09T05:56:40.223Z,6.10
2022-11-09T05:59:06.892Z,6.10
2022-11-09T06:01:33.619Z,6.20
2022-11-09T06:04:00.291Z,6.20
2022-11-09T06:06:26.996Z,6.20
2022-11-09T06:08:53.703Z,6.20
2022-11-09T06:11:23.919Z,6.20
2022-11-09T06:13:52.108Z,6.30
2022-11-09T06:16:18.875Z,6.40
2022-11-09T06:18:45.508Z,6.40
2022-11-09T06:21:15.426Z,6.40
2022-11-09T06:23:42.268Z,6.50
2022-11-09T06:26:10.823Z,6.40
2022-11-09T06:28:38.597Z,6.50
2022-11-09T06:31:07.818Z,6.50
2022-11-09T06:33:35.987Z,6.50
2022-11-09T06:36:03.467Z,6.50
2022-11-09T06:38:30.140Z,6.60
2022-11-09T06:40:58.547Z,6.60
2022-11-09T06:43:26.363Z,6.60
2022-11-09T06:45:53.367Z,6.60
2022-11-09T06:48:20.525Z,6.70
2022-11-09T06:50:47.234Z,6.70
2022-11-09T06:53:16.477Z,6.80
2022-11-09T06:55:48.821Z,6.80
2022-11-09T06:58:17.653Z,6.90
2022-11-09T07:00:45.248Z,6.90
2022-11-09T07:03:20.162Z,7.00
2022-11-09T07:05:48.957Z,7.00
2022-11-09T07:08:17.033Z,7.20
2022-11-09T07:10:44.628Z,7.30
2022-11-09T07:13:12.166Z,7.40
2022-11-09T07:15:39.419Z,7.40
2022-11-09T07:18:08.569Z,7.50
2022-11-09T07:20:35.453Z,7.60
2022-11-09T07:23:02.326Z,7.80
2022-11-09T07:25:29.655Z,7.90
2022-11-09T07:28:05.882Z,8.00
2022-11-09T07:30:32.662Z,8.30
2022-11-09T07:33:09.327Z,8.40
2022-11-09T07:35:37.880Z,8.50
2022-11-09T07:38:04.656Z,8.60
2022-11-09T07:40:31.457Z,8.60
2022-11-09T07:43:03.287Z,8.70
2022-11-09T07:45:30.873Z,8.80
2022-11-09T07:47:59.644Z,8.80
2022-11-09T07:50:27.870Z,8.90
2022-11-09T07:52:59.030Z,8.90
2022-11-09T07:55:26.896Z,9.00
2022-11-09T07:57:58.500Z,9.10
2022-11-09T08:00:26.369Z,9.10
2022-11-09T08:02:53.291Z,9.10
2022-11-09T08:05:20.744Z,9.10
2022-11-09T08:07:47.832Z,9.00
2022-11-09T08:10:14.746Z,9.00
2022-11-09T08:12:41.454Z,9.00
2022-11-09T08:15:08.691Z,9.00
2022-11-09T08:17:35.597Z,9.00
2022-11-09T08:20:02.387Z,9.10
2022-11-09T08:22:29.188Z,9.20
2022-11-09T08:24:56.122Z,9.30
2022-11-09T08:27:23.412Z,9.50
2022-11-09T08:29:50.166Z,9.50
2022-11-09T08:32:16.994Z,9.70
2022-11-09T08:34:48.151Z,9.60
2022-11-09T08:37:16.381Z,9.70
2022-11-09T08:39:43.239Z,9.70
2022-11-09T08:42:09.996Z,9.70
2022-11-09T08:44:36.748Z,9.70
2022-11-09T08:47:03.532Z,10.00
2022-11-09T08:49:30.244Z,10.20
2022-11-09T08:51:56.977Z,10.60
2022-11-09T08:54:24.070Z,10.60
2022-11-09T08:56:50.845Z,10.60
2022-11-09T08:59:17.582Z,10.80
2022-11-09T09:01:44.503Z,10.80
2022-11-09T09:04:11.282Z,10.90
2022-11-09T09:06:38.164Z,11.00
2022-11-09T09:09:05.012Z,11.20
2022-11-09T09:11:31.810Z,11.40
2022-11-09T09:13:58.591Z,11.60
2022-11-09T09:16:25.389Z,11.80
2022-11-09T09:18:54.597Z,12.10
2022-11-09T09:21:21.360Z,12.20
2022-11-09T09:23:52.687Z,12.30
2022-11-09T09:26:19.494Z,12.60
2022-11-09T09:28:46.213Z,12.70
2022-11-09T09:31:18.106Z,12.60
2022-11-09T09:33:45.554Z,12.80
2022-11-09T09:36:23.364Z,12.80
2022-11-09T09:38:54.277Z,12.90
2022-11-09T09:41:39.851Z,13.00
2022-11-09T09:44:28.812Z,13.10
2022-11-09T09:47:09.451Z,13.30
2022-11-09T09:49:51.080Z,13.40
2022-11-09T09:52:23.533Z,13.40
2022-11-09T09:55:08.296Z,13.40
2022-11-09T09:57:41.653Z,13.50
2022-11-09T10:00:19.488Z,13.60
2022-11-09T10:02:46.355Z,13.60
2022-11-09T10:05:16.097Z,13.60
2022-11-09T10:07:59.846Z,13.80
2022-11-09T10:10:45.699Z,13.90
2022-11-09T10:13:24.459Z,13.90
2022-11-09T10:15:55.541Z,13.90
2022-11-09T10:18:31.658Z,13.90
2022-11-09T10:21:29.285Z,14.00
2022-11-09T10:24:11.072Z,14.00
2022-11-09T10:26:51.736Z,14.00
2022-11-09T10:29:46.912Z,14.00
2022-11-09T10:32:19.197Z,14.00
2022-11-09T10:35:04.781Z,14.20
2022-11-09T10:37:40.514Z,14.30
2022-11-09T10:40:25.680Z,14.40
2022-11-09T10:42:59.072Z,14.50
2022-11-09T10:45:35.838Z,14.60
2022-11-09T10:48:04.081Z,14.50
2022-11-09T10:50:30.782Z,14.50
2022-11-09T10:53:23.510Z,14.40
2022-11-09T10:56:20.855Z,14.50
2022-11-09T10:58:53.596Z,14.50
2022-11-09T11:01:25.602Z,14.40
2022-11-09T11:03:54.919Z,14.50
2022-11-09T11:06:21.709Z,14.50
2022-11-09T11:08:53.076Z,14.40
2022-11-09T11:11:37.087Z,14.30
2022-11-09T11:14:17.174Z,14.30
2022-11-09T11:16:50.747Z,14.30
2022-11-09T11:19:35.435Z,14.20
2022-11-09T11:22:11.524Z,14.10
2022-11-09T11:25:01.685Z,14.10
2022-11-09T11:27:53.080Z,14.00
2022-11-09T11:30:28.669Z,14.10
2022-11-09T11:32:56.202Z,14.10
2022-11-09T11:35:45.455Z,14.00
2022-11-09T11:38:34.980Z,14.00
2022-11-09T11:41:35.900Z,14.30
2022-11-09T11:44:26.866Z,14.30
2022-11-09T11:47:00.384Z,14.40
2022-11-09T11:50:03.024Z,14.50
2022-11-09T11:53:05.264Z,14.50
2022-11-09T11:55:51.440Z,14.60
2022-11-09T11:58:49.473Z,14.70
2022-11-09T12:01:27.573Z,14.80
2022-11-09T12:04:22.118Z,14.80
2022-11-09T12:07:21.027Z,14.90
2022-11-09T12:09:47.755Z,14.80
2022-11-09T12:12:29.678Z,14.80
2022-11-09T12:14:56.356Z,14.60
2022-11-09T12:17:44.132Z,14.60
2022-11-09T12:20:31.555Z,14.60
2022-11-09T12:23:13.361Z,14.80
2022-11-09T12:25:47.430Z,14.80
2022-11-09T12:28:33.017Z,14.60
2022-11-09T12:30:59.753Z,14.50
2022-11-09T12:33:43.648Z,14.50
2022-11-09T12:36:31.013Z,14.40
2022-11-09T12:39:04.405Z,14.40
2022-11-09T12:41:35.908Z,14.30
2022-11-09T12:44:16.774Z,14.40
2022-11-09T12:46:52.978Z,14.50
2022-11-09T12:49:39.149Z,14.50
2022-11-09T12:52:13.721Z,14.40
2022-11-09T12:54:44.179Z,14.40
2022-11-09T12:57:16.122Z,14.40
2022-11-09T12:59:50.157Z,14.50
2022-11-09T13:02:34.848Z,14.50
2022-11-09T13:05:04.684Z,14.50
2022-11-09T13:07:37.510Z,14.60
2022-11-09T13:10:04.580Z,14.50
2022-11-09T13:12:42.627Z,14.60
2022-11-09T13:15:26.704Z,14.60
2022-11-09T13:18:04.583Z,14.60
2022-11-09T13:23:54.749Z,14.50
2022-11-09T13:26:46.927Z,14.30
2022-11-09T13:29:41.548Z,14.30
2022-11-09T13:32:11.427Z,14.30
2022-11-09T13:34:50.068Z,14.20
2022-11-09T13:37:41.680Z,14.20
2022-11-09T13:40:30.371Z,14.20
2022-11-09T13:43:06.399Z,14.10
2022-11-09T13:45:42.175Z,14.10
2022-11-09T13:48:31.635Z,14.20
2022-11-09T13:51:01.948Z,14.30
2022-11-09T13:53:53.310Z,14.30
2022-11-09T13:56:32.393Z,14.30
2022-11-09T13:59:17.310Z,14.40
2022-11-09T14:01:54.228Z,14.40
2022-11-09T14:04:22.580Z,14.40
2022-11-09T14:06:50.856Z,14.30
2022-11-09T14:09:20.489Z,14.30
2022-11-09T14:12:04.111Z,14.20
2022-11-09T14:14:57.291Z,14.10
2022-11-09T14:17:44.038Z,14.10
2022-11-09T14:20:32.039Z,14.10
2022-11-09T14:22:58.860Z,14.20
2022-11-09T14:25:26.035Z,14.10
2022-11-09T14:27:58.979Z,14.10
2022-11-09T14:30:31.170Z,14.10
2022-11-09T14:32:59.242Z,14.10
2022-11-09T14:35:46.282Z,14.10
2022-11-09T14:38:20.022Z,14.10
2022-11-09T14:40:48.793Z,14.10
2022-11-09T14:43:43.070Z,14.10
2022-11-09T14:46:17.410Z,14.00
2022-11-09T14:48:59.515Z,14.00
2022-11-09T14:51:48.431Z,14.00
2022-11-09T14:54:19.176Z,14.00
2022-11-09T14:56:46.738Z,13.90
2022-11-09T14:59:16.666Z,13.90
2022-11-09T15:02:09.721Z,13.70
2022-11-09T15:04:58.047Z,13.60
2022-11-09T15:07:29.051Z,13.60
2022-11-09T15:09:58.772Z,13.60
2022-11-09T15:12:26.205Z,13.60
2022-11-09T15:15:01.594Z,13.50
2022-11-09T15:17:36.603Z,13.50
2022-11-09T15:20:31.939Z,13.40
2022-11-09T15:23:20.608Z,13.40
2022-11-09T15:25:47.459Z,13.30
2022-11-09T15:28:14.198Z,13.30
2022-11-09T15:30:46.108Z,13.30
2022-11-09T15:33:21.431Z,13.30
2022-11-09T15:35:53.084Z,13.20
2022-11-09T15:38:36.569Z,13.20
2022-11-09T15:41:10.014Z,13.20
2022-11-09T15:43:37.315Z,13.20
2022-11-09T15:46:04.867Z,13.20
2022-11-09T15:48:32.220Z,13.20
2022-11-09T15:50:59.120Z,13.10
2022-11-09T15:53:26.425Z,13.10
2022-11-09T15:55:53.285Z,13.10
2022-11-09T15:58:20.558Z,13.00
2022-11-09T16:00:47.855Z,12.90
2022-11-09T16:03:17.306Z,12.90
2022-11-09T16:05:45.412Z,12.90
2022-11-09T16:08:12.512Z,12.70
2022-11-09T16:10:41.211Z,12.70
2022-11-09T16:13:09.707Z,12.60
2022-11-09T16:15:37.676Z,12.60
2022-11-09T16:18:04.989Z,12.50
2022-11-09T16:20:31.829Z,12.50
2022-11-09T16:22:58.851Z,12.30
2022-11-09T16:25:25.597Z,12.30
2022-11-09T16:27:53.380Z,12.20
2022-11-09T16:30:20.581Z,12.10
2022-11-09T16:32:47.351Z,12.10
2022-11-09T16:35:29.445Z,12.10
2022-11-09T16:37:58.199Z,12.10
2022-11-09T16:40:25.947Z,12.00
2022-11-09T16:42:52.769Z,12.00
2022-11-09T16:45:20.289Z,11.90
2022-11-09T16:47:50.966Z,11.90
2022-11-09T16:50:18.080Z,11.90
2022-11-09T16:52:45.190Z,11.80
2022-11-09T16:55:12.263Z,11.80
2022-11-09T16:57:39.017Z,11.80
2022-11-09T17:00:07.277Z,11.70
2022-11-09T17:02:34.468Z,11.70
2022-11-09T17:05:01.213Z,11.60
2022-11-09T17:07:28.464Z,11.60
2022-11-09T17:09:55.491Z,11.60
2022-11-09T17:12:22.368Z,11.60
2022-11-09T17:14:49.215Z,11.60
2022-11-09T17:17:22.305Z,11.60
2022-11-09T17:19:49.967Z,11.50
2022-11-09T17:22:17.434Z,11.50
2022-11-09T17:24:44.664Z,11.40
2022-11-09T17:27:12.145Z,11.40
2022-11-09T17:29:39.839Z,11.40
2022-11-09T17:32:08.543Z,11.40
2022-11-09T17:34:36.630Z,11.40
2022-11-09T17:37:05.047Z,11.40
2022-11-09T17:39:33.152Z,11.40
2022-11-09T17:42:00.209Z,11.30
2022-11-09T17:44:27.234Z,11.30
2022-11-09T17:46:54.025Z,11.30
2022-11-09T17:49:21.899Z,11.30
2022-11-09T17:51:48.775Z,11.30
2022-11-09T17:54:15.735Z,11.20
2022-11-09T17:56:42.797Z,11.30
2022-11-09T17:59:09.925Z,11.20
2022-11-09T18:01:41.632Z,11.20
2022-11-09T18:04:10.577Z,11.20
2022-11-09T18:06:38.367Z,11.20
2022-11-09T18:11:54.372Z,11.20
2022-11-09T18:14:21.323Z,11.10
2022-11-09T18:16:48.084Z,11.10
2022-11-09T18:19:14.841Z,11.10
2022-11-09T18:21:41.617Z,11.10
2022-11-09T18:24:08.706Z,11.10
2022-11-09T18:26:35.532Z,11.10
2022-11-09T18:29:02.377Z,11.10
2022-11-09T18:31:29.230Z,11.10
2022-11-09T18:33:56.061Z,11.00
2022-11-09T18:36:23.426Z,11.00
2022-11-09T18:38:53.003Z,10.90
2022-11-09T18:41:22.570Z,10.90
2022-11-09T18:43:51.319Z,10.90
2022-11-09T18:46:19.906Z,10.90
2022-11-09T18:48:51.354Z,10.90
2022-11-09T18:51:18.558Z,10.90
2022-11-09T18:53:46.557Z,10.90
2022-11-09T18:56:19.197Z,10.80
2022-11-09T18:58:46.570Z,10.80
2022-11-09T19:01:13.933Z,10.80
2022-11-09T19:03:40.853Z,10.90
2022-11-09T19:06:16.088Z,10.80
2022-11-09T19:09:01.420Z,10.80
2022-11-09T19:11:29.971Z,10.80
2022-11-09T19:13:56.914Z,10.80
2022-11-09T19:16:24.130Z,10.80
2022-11-09T19:18:50.986Z,10.80
2022-11-09T19:21:37.269Z,10.70
2022-11-09T19:24:04.722Z,10.70
2022-11-09T19:26:32.196Z,10.70
2022-11-09T19:28:58.963Z,10.70
2022-11-09T19:31:26.060Z,10.70
2022-11-09T19:33:52.899Z,10.70
2022-11-09T19:36:30.077Z,10.70
2022-11-09T19:38:57.887Z,10.70
2022-11-09T19:41:25.429Z,10.70
2022-11-09T19:43:54.776Z,10.60
2022-11-09T19:46:22.318Z,10.60
2022-11-09T19:48:49.142Z,10.60
2022-11-09T19:51:17.419Z,10.60
2022-11-09T19:53:52.505Z,10.60
2022-11-09T19:56:21.008Z,10.60
2022-11-09T19:58:52.752Z,10.60
2022-11-09T20:01:20.310Z,10.60
2022-11-09T20:04:09.945Z,10.60
2022-11-09T20:06:38.541Z,10.60
2022-11-09T20:09:05.710Z,10.50
2022-11-09T20:11:50.970Z,10.50
2022-11-09T20:14:18.310Z,10.50
2022-11-09T20:16:46.826Z,10.50
2022-11-09T20:19:14.224Z,10.50
2022-11-09T20:21:41.377Z,10.50
2022-11-09T20:24:11.078Z,10.60
2022-11-09T20:26:38.527Z,10.60
2022-11-09T20:29:05.311Z,10.60
2022-11-09T20:31:32.056Z,10.60
2022-11-09T20:34:00.789Z,10.60
2022-11-09T20:36:27.698Z,10.70
2022-11-09T20:38:54.802Z,10.60
2022-11-09T20:41:25.198Z,10.70
2022-11-09T20:43:52.687Z,10.60
2022-11-09T20:46:22.890Z,10.60
2022-11-09T20:48:55.339Z,10.60
2022-11-09T20:51:23.866Z,10.70
2022-11-09T20:53:51.005Z,10.60
2022-11-09T20:56:19.010Z,10.60
2022-11-09T20:58:46.614Z,10.70
2022-11-09T21:01:16.041Z,10.70
2022-11-09T21:03:43.400Z,10.70
2022-11-09T21:06:11.689Z,10.70
2022-11-09T21:08:38.497Z,10.70
2022-11-09T21:11:08.047Z,10.70
2022-11-09T21:13:35.000Z,10.70
2022-11-09T21:16:10.029Z,10.70
2022-11-09T21:18:37.119Z,10.70
2022-11-09T21:21:08.984Z,10.70
2022-11-09T21:23:55.941Z,10.70
2022-11-09T21:26:42.308Z,10.70
2022-11-09T21:29:36.418Z,10.70
2022-11-09T21:32:04.137Z,10.60
2022-11-09T21:34:36.268Z,10.70
2022-11-09T21:37:03.902Z,10.60
2022-11-09T21:39:30.646Z,10.70
2022-11-09T21:41:57.428Z,10.70
2022-11-09T21:44:24.621Z,10.70
2022-11-09T21:46:51.439Z,10.70
2022-11-09T21:49:18.182Z,10.60
2022-11-09T21:51:46.952Z,10.60
2022-11-09T21:54:13.789Z,10.60
2022-11-09T21:56:40.660Z,10.60
2022-11-09T21:59:07.578Z,10.60
2022-11-09T22:01:34.684Z,10.50
2022-11-09T22:04:01.497Z,10.60
2022-11-09T22:06:28.474Z,10.60
2022-11-09T22:08:55.473Z,10.50
2022-11-09T22:11:43.234Z,10.50
2022-11-09T22:14:31.794Z,10.50
2022-11-09T22:16:59.259Z,10.50
2022-11-09T22:19:47.149Z,10.50
2022-11-09T22:22:15.468Z,10.50
2022-11-09T22:24:42.402Z,10.40
2022-11-09T22:27:09.308Z,10.40
2022-11-09T22:29:36.119Z,10.40
2022-11-09T22:32:02.957Z,10.40
2022-11-09T22:34:29.685Z,10.40
2022-11-09T22:36:56.439Z,10.40
2022-11-09T22:39:23.204Z,10.40
2022-11-09T22:41:49.918Z,10.40
2022-11-09T22:44:16.810Z,10.40
2022-11-09T22:46:43.612Z,10.40
2022-11-09T22:49:10.436Z,10.40
2022-11-09T22:51:37.172Z,10.40
2022-11-09T22:54:04.159Z,10.40
2022-11-09T22:56:30.883Z,10.40
2022-11-09T22:58:57.693Z,10.40
2022-11-09T23:01:24.761Z,10.40
2022-11-09T23:03:52.419Z,10.40
2022-11-09T23:06:21.320Z,10.40
2022-11-09T23:08:48.978Z,10.40
2022-11-09T23:11:19.159Z,10.40
2022-11-09T23:13:49.844Z,10.40
2022-11-09T23:16:16.764Z,10.40
2022-11-09T23:18:53.639Z,10.40
2022-11-09T23:21:40.913Z,10.40
2022-11-09T23:24:28.139Z,10.40
2022-11-09T23:26:54.856Z,10.40
2022-11-09T23:29:21.614Z,10.40
2022-11-09T23:31:48.370Z,10.40
2022-11-09T23:34:16.101Z,10.40
2022-11-09T23:36:42.852Z,10.40
2022-11-09T23:39:09.640Z,10.40
2022-11-09T23:41:36.674Z,10.40
2022-11-09T23:44:03.381Z,10.40
2022-11-09T23:46:30.167Z,10.40
2022-11-09T23:48:56.965Z,10.40
2022-11-09T23:51:23.788Z,10.40
2022-11-09T23:53:50.527Z,10.40
2022-11-09T23:56:17.363Z,10.40
2022-11-09T23:58:45.867Z,10.40
